Time;durP1;ratioP1;P1;durP2;ratioP2;P2;SDS_P1;SDS_P2;PMS_P1;PMS_P2;Temp;Humidity;BMP_temperature;BMP_pressure;BME280_temperature;BME280_humidity;BME280_pressure;Samples;Min_cycle;Max_cycle;Signal;HPM_P1;HPM_P2
2022/02/09 00:00:53;;;;;;;;;;;;;;;;;;5071918;28;20301;-64
2022/02/09 00:03:21;;;;;;;;;;;;;;;;;;5072144;28;19925;-64
2022/02/09 00:05:57;;;;;;;;;;;;;;;;;;5073014;28;19925;-64
2022/02/09 00:08:25;;;;;;;;;;;;;;;;;;5070541;28;19933;-64
2022/02/09 00:10:57;;;;;;;;;;;;;;;;;;5070424;28;19924;-64
2022/02/09 00:16:19;;;;;;;;;;;;;;;;;;5060753;28;19925;-64
2022/02/09 00:18:53;;;;;;;;;;;;;;;;;;5070597;28;19924;-64
2022/02/09 00:21:34;;;;;;;;;;;;;;;;;;5067357;28;19928;-65
2022/02/09 00:41:12;;;;;;;;;;;;;;;;;;5104116;27;19920;-64
2022/02/09 00:43:55;;;;;;;;;;;;;;;;;;5115645;28;20410;-64
2022/02/09 01:38:56;;;;;;;;;;;;;;;;;;5116488;28;20281;-63
2022/02/09 01:55:29;;;;;;;;;;;;;;;;;;5060898;28;20333;-63
2022/02/09 01:57:56;;;;;;;;;;;;;;;;;;5059611;28;19928;-63
2022/02/09 02:00:23;;;;;;;;;;;;;;;;;;5082406;28;19924;-64
2022/02/09 02:02:50;;;;;;;;;;;;;;;;;;5086017;28;20267;-64
2022/02/09 02:05:17;;;;;;;;;;;;;;;;;;5082878;28;20392;-63
2022/02/09 02:07:49;;;;;;;;;;;;;;;;;;5083772;28;19924;-64
2022/02/09 02:10:21;;;;;;;;;;;;;;;;;;5077943;28;20305;-63
2022/02/09 02:12:48;;;;;;;;;;;;;;;;;;5076760;28;20359;-63
2022/02/09 02:15:39;;;;;;;;;;;;;;;;;;5080354;28;19975;-63
2022/02/09 02:18:06;;;;;;;;;;;;;;;;;;5061981;28;20054;-63
2022/02/09 02:20:42;;;;;;;;;;;;;;;;;;5067417;28;19932;-63
2022/02/09 02:23:29;;;;;;;;;;;;;;;;;;5071145;28;19940;-63
2022/02/09 02:26:12;;;;;;;;;;;;;;;;;;5070337;28;19924;-64
2022/02/09 02:28:49;;;;;;;;;;;;;;;;;;5068455;28;20355;-63
2022/02/09 02:31:42;;;;;;;;;;;;;;;;;;5071058;28;19929;-63
2022/02/09 02:34:52;;;;;;;;;;;;;;;;;;5064631;28;19932;-64
2022/02/09 02:40:26;;;;;;;;;;;;;;;;;;5054654;28;20386;-63
2022/02/09 02:57:22;;;;;;;;;;;;;;;;;;5065135;28;19924;-63
2022/02/09 03:11:02;;;;;;;;;;;;;;;;;;5071026;28;19935;-63
2022/02/09 03:13:32;;;;;;;;;;;;;;;;;;5064819;28;20667;-63
2022/02/09 03:16:03;;;;;;;;;;;;;;;;;;5067952;28;19928;-63
2022/02/09 03:18:55;;;;;;;;;;;;;;;;;;5069339;28;20340;-63
2022/02/09 03:21:35;;;;;;;;;;;;;;;;;;5071293;28;20305;-63
2022/02/09 03:24:08;;;;;;;;;;;;;;;;;;5066168;28;19940;-63
2022/02/09 03:27:15;;;;;;;;;;;;;;;;;;5067426;28;19925;-64
2022/02/09 03:43:46;;;;;;;;;;;;;;;;;;5069227;28;19920;-63
2022/02/09 03:46:29;;;;;;;;;;;;;;;;;;5070432;28;19925;-64
2022/02/09 03:49:14;;;;;;;;;;;;;;;;;;5058694;28;20015;-63
2022/02/09 03:51:53;;;;;;;;;;;;;;;;;;5069973;28;20012;-64
2022/02/09 03:54:28;;;;;;;;;;;;;;;;;;5065018;28;19924;-63
2022/02/09 03:56:59;;;;;;;;;;;;;;;;;;5067741;28;19925;-63
2022/02/09 03:59:28;;;;;;;;;;;;;;;;;;5062459;28;19924;-63
2022/02/09 04:01:55;;;;;;;;;;;;;;;;;;5064622;28;19940;-63
2022/02/09 04:04:22;;;;;;;;;;;;;;;;;;5060478;28;19932;-63
2022/02/09 04:06:51;;;;;;;;;;;;;;;;;;5061892;28;19928;-63
2022/02/09 04:09:21;;;;;;;;;;;;;;;;;;5067762;28;19928;-64
2022/02/09 04:11:55;;;;;;;;;;;;;;;;;;5068164;28;19933;-64
2022/02/09 04:14:29;;;;;;;;;;;;;;;;;;5060375;28;19934;-64
2022/02/09 04:17:08;;;;;;;;;;;;;;;;;;5068856;28;19924;-64
2022/02/09 04:19:44;;;;;;;;;;;;;;;;;;5067078;28;19981;-64
2022/02/09 04:36:16;;;;;;;;;;;;;;;;;;5069001;28;20286;-62
2022/02/09 04:38:50;;;;;;;;;;;;;;;;;;5065990;28;20394;-62
2022/02/09 04:41:30;;;;;;;;;;;;;;;;;;5071731;28;19924;-63
2022/02/09 04:44:15;;;;;;;;;;;;;;;;;;5063293;28;19925;-63
2022/02/09 04:52:28;;;;;;;;;;;;;;;;;;5049501;28;19928;-64
2022/02/09 04:55:03;;;;;;;;;;;;;;;;;;5063118;28;19979;-64
2022/02/09 04:57:36;;;;;;;;;;;;;;;;;;5065398;28;20019;-64
2022/02/09 05:00:28;;;;;;;;;;;;;;;;;;5060211;28;20385;-64
2022/02/09 05:03:29;;;;;;;;;;;;;;;;;;5062742;28;20422;-64
2022/02/09 05:22:57;;;;;;;;;;;;;;;;;;5092156;27;19925;-63
2022/02/09 05:28:07;;;;;;;;;;;;;;;;;;5080831;28;19920;-63
2022/02/09 05:30:34;;;;;;;;;;;;;;;;;;5079623;28;20369;-63
2022/02/09 05:33:01;;;;;;;;;;;;;;;;;;5076029;28;19993;-63
2022/02/09 05:35:28;;;;;;;;;;;;;;;;;;5081439;28;19944;-63
2022/02/09 05:37:55;;;;;;;;;;;;;;;;;;5081072;28;20283;-63
2022/02/09 05:40:22;;;;;;;;;;;;;;;;;;5074690;28;19959;-64
2022/02/09 05:42:49;;;;;;;;;;;;;;;;;;5070688;28;20370;-63
2022/02/09 05:45:17;;;;;;;;;;;;;;;;;;5081764;28;19928;-63
2022/02/09 05:50:32;;;;;;;;;;;;;;;;;;5075451;28;20023;-64
2022/02/09 05:53:09;;;;;;;;;;;;;;;;;;5078700;28;19967;-65
2022/02/09 05:55:45;;;;;;;;;;;;;;;;;;5078647;28;20055;-63
2022/02/09 05:58:15;;;;;;;;;;;;;;;;;;5078359;28;20033;-63
2022/02/09 06:00:47;;;;;;;;;;;;;;;;;;5073171;28;20295;-64
2022/02/09 06:03:14;;;;;;;;;;;;;;;;;;5075238;28;20015;-64
2022/02/09 06:05:41;;;;;;;;;;;;;;;;;;5083110;28;20305;-64
2022/02/09 06:08:08;;;;;;;;;;;;;;;;;;5076377;28;19932;-64
2022/02/09 06:10:36;;;;;;;;;;;;;;;;;;5077041;28;19931;-66
2022/02/09 06:13:20;;;;;;;;;;;;;;;;;;5073948;28;19993;-63
2022/02/09 06:16:10;;;;;;;;;;;;;;;;;;5081191;28;19924;-64
2022/02/09 06:21:22;;;;;;;;;;;;;;;;;;5081240;28;20385;-64
2022/02/09 06:23:48;;;;;;;;;;;;;;;;;;5098571;28;19924;-63
2022/02/09 06:26:15;;;;;;;;;;;;;;;;;;5100847;28;19924;-63
2022/02/09 06:28:42;;;;;;;;;;;;;;;;;;5097630;28;20336;-63
2022/02/09 06:31:09;;;;;;;;;;;;;;;;;;5099429;28;19928;-62
2022/02/09 06:33:36;;;;;;;;;;;;;;;;;;5087422;28;19940;-64
2022/02/09 06:36:06;;;;;;;;;;;;;;;;;;5085949;28;19998;-62
2022/02/09 06:38:38;;;;;;;;;;;;;;;;;;5087169;28;19939;-65
2022/02/09 06:41:05;;;;;;;;;;;;;;;;;;5083280;28;19978;-65
2022/02/09 06:43:33;;;;;;;;;;;;;;;;;;5085781;28;19936;-65
2022/02/09 06:46:01;;;;;;;;;;;;;;;;;;5082992;28;19925;-65
2022/02/09 06:48:29;;;;;;;;;;;;;;;;;;5082390;28;19931;-65
2022/02/09 06:51:01;;;;;;;;;;;;;;;;;;5084502;28;20354;-65
2022/02/09 06:53:33;;;;;;;;;;;;;;;;;;5089540;28;20023;-64
2022/02/09 06:56:02;;;;;;;;;;;;;;;;;;5083550;28;20338;-64
2022/02/09 06:58:45;;;;;;;;;;;;;;;;;;5083817;28;19981;-65
2022/02/09 07:01:12;;;;;;;;;;;;;;;;;;5087743;28;20397;-64
2022/02/09 07:03:39;;;;;;;;;;;;;;;;;;5091058;28;19939;-65
2022/02/09 07:06:06;;;;;;;;;;;;;;;;;;5084363;28;20353;-65
2022/02/09 07:08:33;;;;;;;;;;;;;;;;;;5081304;28;19932;-65
2022/02/09 07:11:00;;;;;;;;;;;;;;;;;;5084409;28;20279;-64
2022/02/09 07:13:26;;;;;;;;;;;;;;;;;;5081581;28;19925;-65
2022/02/09 07:15:55;;;;;;;;;;;;;;;;;;5087516;28;19924;-65
2022/02/09 07:18:24;;;;;;;;;;;;;;;;;;5085737;28;19978;-66
2022/02/09 07:20:58;;;;;;;;;;;;;;;;;;5085635;28;19931;-65
2022/02/09 07:23:30;;;;;;;;;;;;;;;;;;5094208;28;19977;-65
2022/02/09 07:26:05;;;;;;;;;;;;;;;;;;5082637;28;19924;-66
2022/02/09 07:28:32;;;;;;;;;;;;;;;;;;5080262;28;19933;-67
2022/02/09 07:30:59;;;;;;;;;;;;;;;;;;5083778;28;19928;-66
2022/02/09 07:33:26;;;;;;;;;;;;;;;;;;5079277;28;19932;-66
2022/02/09 07:35:53;;;;;;;;;;;;;;;;;;5081269;28;19931;-66
2022/02/09 07:38:20;;;;;;;;;;;;;;;;;;5087679;28;19947;-66
2022/02/09 07:40:47;;;;;;;;;;;;;;;;;;5084411;28;19924;-66
2022/02/09 07:43:20;;;;;;;;;;;;;;;;;;5081344;28;19931;-66
2022/02/09 07:46:20;;;;;;;;;;;;;;;;;;5077424;28;19977;-66
2022/02/09 07:49:00;;;;;;;;;;;;;;;;;;5089561;22;19944;-63
2022/02/09 07:51:53;;;;;;;;;;;;;;;;;;5036235;28;19947;-63
2022/02/09 07:54:21;;;;;;;;;;;;;;;;;;5025776;28;19926;-64
2022/02/09 07:56:49;;;;;;;;;;;;;;;;;;5021665;28;19932;-64
2022/02/09 07:59:16;;;;;;;;;;;;;;;;;;5024081;28;19925;-63
2022/02/09 08:01:43;;;;;;;;;;;;;;;;;;5006749;28;20315;-63
2022/02/09 08:04:10;;;;;;;;;;;;;;;;;;4998306;28;19925;-63
2022/02/09 08:06:37;;;;;;;;;;;;;;;;;;5002109;28;19933;-64
2022/02/09 08:09:05;;;;;;;;;;;;;;;;;;4995767;28;19926;-64
2022/02/09 08:11:37;;;;;;;;;;;;;;;;;;4993946;28;20057;-63
2022/02/09 08:27:57;;;;;;;;;;;;;;;;;;5001636;28;19922;-63
2022/02/09 08:30:46;;;;;;;;;;;;;;;;;;5002556;28;20410;-63
2022/02/09 08:33:18;;;;;;;;;;;;;;;;;;5001233;28;19945;-62
2022/02/09 08:35:45;;;;;;;;;;;;;;;;;;5001163;28;20007;-64
2022/02/09 08:38:12;;;;;;;;;;;;;;;;;;5009003;28;19929;-64
2022/02/09 08:40:39;;;;;;;;;;;;;;;;;;4997152;28;19934;-63
2022/02/09 08:43:08;;;;;;;;;;;;;;;;;;5009712;28;19933;-64
2022/02/09 08:45:35;;;;;;;;;;;;;;;;;;5005514;28;19976;-62
2022/02/09 08:48:02;;;;;;;;;;;;;;;;;;5007680;28;20311;-63
2022/02/09 08:50:29;;;;;;;;;;;;;;;;;;4999007;28;19925;-64
2022/02/09 08:52:56;;;;;;;;;;;;;;;;;;5008475;28;20276;-64
2022/02/09 08:55:23;;;;;;;;;;;;;;;;;;5006482;28;19926;-63
2022/02/09 08:57:50;;;;;;;;;;;;;;;;;;5009233;28;19933;-63
2022/02/09 09:00:21;;;;;;;;;;;;;;;;;;5000707;28;19941;-63
2022/02/09 09:02:57;;;;;;;;;;;;;;;;;;5001263;28;19929;-63
2022/02/09 09:05:29;;;;;;;;;;;;;;;;;;5001086;28;19925;-63
2022/02/09 09:08:11;;;;;;;;;;;;;;;;;;5011127;28;20405;-63
2022/02/09 09:10:46;;;;;;;;;;;;;;;;;;4996684;28;19932;-63
2022/02/09 10:02:49;;;;;;;;;;;;;;;;;;4968674;28;19933;-63
2022/02/09 10:32:52;;;;;;;;;;;;;;;;;;5008096;28;19925;-64
2022/02/09 10:35:27;;;;;;;;;;;;;;;;;;5014184;28;19983;-64
2022/02/09 10:37:56;;;;;;;;;;;;;;;;;;5010372;28;20462;-63
2022/02/09 10:40:22;;;;;;;;;;;;;;;;;;5005037;28;19936;-64
2022/02/09 10:42:56;;;;;;;;;;;;;;;;;;5003652;28;19936;-63
2022/02/09 10:45:29;;;;;;;;;;;;;;;;;;5004461;28;19930;-63
2022/02/09 10:47:56;;;;;;;;;;;;;;;;;;5015954;28;19925;-63
2022/02/09 10:50:26;;;;;;;;;;;;;;;;;;5003601;28;20422;-64
2022/02/09 10:52:53;;;;;;;;;;;;;;;;;;5002224;28;19934;-63
2022/02/09 10:55:20;;;;;;;;;;;;;;;;;;5002838;28;19932;-64
2022/02/09 10:57:47;;;;;;;;;;;;;;;;;;5006212;28;19926;-64
2022/02/09 11:00:14;;;;;;;;;;;;;;;;;;5004088;28;19965;-64
2022/02/09 11:02:41;;;;;;;;;;;;;;;;;;5002016;28;19926;-64
2022/02/09 11:05:08;;;;;;;;;;;;;;;;;;5004311;28;19933;-63
2022/02/09 11:07:35;;;;;;;;;;;;;;;;;;5001247;28;19933;-63
2022/02/09 11:10:02;;;;;;;;;;;;;;;;;;5002948;28;19926;-65
2022/02/09 11:12:29;;;;;;;;;;;;;;;;;;5002575;28;19950;-64
2022/02/09 11:14:56;;;;;;;;;;;;;;;;;;5002550;28;19934;-64
2022/02/09 11:17:22;;;;;;;;;;;;;;;;;;5006364;28;20266;-64
2022/02/09 11:19:51;;;;;;;;;;;;;;;;;;5001409;28;19937;-65
2022/02/09 11:22:23;;;;;;;;;;;;;;;;;;4999478;28;19957;-63
2022/02/09 11:24:50;;;;;;;;;;;;;;;;;;5004468;28;19934;-64
2022/02/09 11:27:20;;;;;;;;;;;;;;;;;;5011623;28;19956;-64
2022/02/09 11:29:54;;;;;;;;;;;;;;;;;;4994144;28;20615;-63
2022/02/09 11:32:26;;;;;;;;;;;;;;;;;;5003554;28;20001;-64
2022/02/09 11:34:56;;;;;;;;;;;;;;;;;;5000458;28;19975;-63
2022/02/09 11:37:27;;;;;;;;;;;;;;;;;;5001309;28;19930;-63
2022/02/09 11:39:57;;;;;;;;;;;;;;;;;;5002632;28;20422;-64
2022/02/09 11:42:25;;;;;;;;;;;;;;;;;;5012576;28;20339;-64
2022/02/09 11:44:57;;;;;;;;;;;;;;;;;;5003003;28;19938;-64
2022/02/09 11:47:24;;;;;;;;;;;;;;;;;;5003723;28;19929;-64
2022/02/09 11:50:23;;;;;;;;;;;;;;;;;;5002994;28;19970;-63
2022/02/09 11:54:41;;;;;;;;;;;;;;;;;;5004203;28;19929;-63
2022/02/09 12:01:29;;;;;;;;;;;;;;;;;;5001182;28;19944;-63
2022/02/09 12:09:42;;;;;;;;;;;;;;;;;;4999287;28;19926;-63
2022/02/09 12:12:12;;;;;;;;;;;;;;;;;;4999661;28;19930;-63
2022/02/09 12:14:47;;;;;;;;;;;;;;;;;;5001289;28;19938;-64
2022/02/09 12:17:27;;;;;;;;;;;;;;;;;;4999951;28;19926;-64
2022/02/09 12:20:03;;;;;;;;;;;;;;;;;;5001539;28;19933;-64
2022/02/09 12:22:38;;;;;;;;;;;;;;;;;;5007311;28;19926;-64
2022/02/09 12:25:05;;;;;;;;;;;;;;;;;;5001819;28;19971;-64
2022/02/09 12:27:32;;;;;;;;;;;;;;;;;;5000437;28;20309;-64
2022/02/09 12:29:59;;;;;;;;;;;;;;;;;;4998531;28;20376;-64
2022/02/09 12:32:27;;;;;;;;;;;;;;;;;;5005952;28;19929;-64
2022/02/09 12:34:54;;;;;;;;;;;;;;;;;;5004825;28;20021;-63
2022/02/09 12:37:21;;;;;;;;;;;;;;;;;;5005263;28;20291;-64
2022/02/09 12:39:48;;;;;;;;;;;;;;;;;;4994548;28;19925;-64
2022/02/09 12:42:15;;;;;;;;;;;;;;;;;;4999672;28;19930;-64
2022/02/09 12:44:42;;;;;;;;;;;;;;;;;;5000989;28;19940;-64
2022/02/09 12:47:09;;;;;;;;;;;;;;;;;;5004466;28;20411;-63
2022/02/09 12:49:36;;;;;;;;;;;;;;;;;;5007365;28;20272;-63
2022/02/09 12:52:03;;;;;;;;;;;;;;;;;;5004686;28;19933;-63
2022/02/09 12:54:30;;;;;;;;;;;;;;;;;;5001201;28;19925;-63
2022/02/09 12:56:57;;;;;;;;;;;;;;;;;;5000236;28;20407;-65
2022/02/09 12:59:24;;;;;;;;;;;;;;;;;;5003246;28;20052;-62
2022/02/09 13:01:51;;;;;;;;;;;;;;;;;;5005252;28;19932;-65
2022/02/09 13:04:17;;;;;;;;;;;;;;;;;;4999849;28;19932;-63
2022/02/09 13:06:45;;;;;;;;;;;;;;;;;;5004550;28;19929;-63
2022/02/09 13:09:12;;;;;;;;;;;;;;;;;;4999437;28;19929;-63
2022/02/09 13:11:39;;;;;;;;;;;;;;;;;;5002833;28;19936;-64
2022/02/09 13:14:10;;;;;;;;;;;;;;;;;;5002541;28;19929;-63
2022/02/09 13:16:53;;;;;;;;;;;;;;;;;;5002798;28;19925;-63
2022/02/09 13:20:09;;;;;;;;;;;;;;;;;;5004225;28;20419;-63
2022/02/09 13:25:51;;;;;;;;;;;;;;;;;;4992324;28;19929;-63
2022/02/09 14:04:49;;;;;;;;;;;;;;;;;;5003220;28;19929;-63
2022/02/09 14:12:38;;;;;;;;;;;;;;;;;;5009402;28;19924;-64
2022/02/09 14:18:21;;;;;;;;;;;;;;;;;;4971983;28;19996;-63
2022/02/09 14:35:01;;;;;;;;;;;;;;;;;;4998864;28;20427;-63
2022/02/09 14:51:49;;;;;;;;;;;;;;;;;;5084036;28;20404;-65
2022/02/09 14:54:28;;;;;;;;;;;;;;;;;;5065709;28;19924;-63
2022/02/09 14:57:00;;;;;;;;;;;;;;;;;;5065587;28;19924;-63
2022/02/09 14:59:45;;;;;;;;;;;;;;;;;;5052992;28;20386;-64
2022/02/09 15:02:17;;;;;;;;;;;;;;;;;;5043799;28;19929;-63
2022/02/09 15:05:11;;;;;;;;;;;;;;;;;;5045443;28;19931;-63
2022/02/09 15:07:44;;;;;;;;;;;;;;;;;;5046466;28;20453;-64
2022/02/09 15:10:17;;;;;;;;;;;;;;;;;;5044310;28;20167;-64
2022/02/09 15:12:54;;;;;;;;;;;;;;;;;;5043537;28;19956;-64
2022/02/09 15:15:36;;;;;;;;;;;;;;;;;;5043117;28;20433;-64
2022/02/09 15:18:46;;;;;;;;;;;;;;;;;;5047025;28;19939;-64
2022/02/09 15:21:20;;;;;;;;;;;;;;;;;;5043839;28;19983;-64
2022/02/09 15:23:50;;;;;;;;;;;;;;;;;;5046689;28;20016;-62
2022/02/09 15:26:19;;;;;;;;;;;;;;;;;;5041313;28;19933;-63
2022/02/09 15:28:45;;;;;;;;;;;;;;;;;;5036608;28;20012;-63
2022/02/09 15:31:21;;;;;;;;;;;;;;;;;;5033885;28;19968;-63
2022/02/09 15:34:00;;;;;;;;;;;;;;;;;;5039887;28;20159;-63
2022/02/09 15:36:46;;;;;;;;;;;;;;;;;;5044399;28;19925;-63
2022/02/09 15:39:14;;;;;;;;;;;;;;;;;;5034007;28;20017;-63
2022/02/09 15:41:56;;;;;;;;;;;;;;;;;;5043491;28;19925;-63
2022/02/09 16:07:01;;;;;;;;;;;;;;;;;;5049982;28;19923;-64
2022/02/09 16:09:27;;;;;;;;;;;;;;;;;;5049630;28;20298;-64
2022/02/09 16:23:09;;;;;;;;;;;;;;;;;;5049671;28;20409;-64
2022/02/09 16:25:53;;;;;;;;;;;;;;;;;;5050482;28;19932;-64
2022/02/09 16:34:10;;;;;;;;;;;;;;;;;;5043144;28;19924;-64
2022/02/09 16:44:56;;;;;;;;;;;;;;;;;;5050804;28;20318;-64
2022/02/09 16:47:44;;;;;;;;;;;;;;;;;;5044308;28;19931;-63
2022/02/09 16:50:15;;;;;;;;;;;;;;;;;;5040887;28;20016;-63
2022/02/09 16:52:47;;;;;;;;;;;;;;;;;;5049155;28;19952;-63
2022/02/09 17:19:55;;;;;;;;;;;;;;;;;;5042295;28;20417;-64
2022/02/09 17:22:22;;;;;;;;;;;;;;;;;;5044590;28;19924;-63
2022/02/09 17:24:49;;;;;;;;;;;;;;;;;;5046234;28;19939;-63
2022/02/09 17:27:19;;;;;;;;;;;;;;;;;;5041823;28;19935;-63
2022/02/09 17:30:05;;;;;;;;;;;;;;;;;;5043495;28;19928;-63
2022/02/09 17:32:45;;;;;;;;;;;;;;;;;;5044758;28;20325;-63
2022/02/09 17:35:18;;;;;;;;;;;;;;;;;;5044430;28;20047;-63
2022/02/09 17:38:03;;;;;;;;;;;;;;;;;;5041955;28;20375;-64
2022/02/09 17:54:50;;;;;;;;;;;;;;;;;;5041598;28;20441;-65
2022/02/09 17:57:09;;;;;;;;;;;;;;;;;;5042870;28;19928;-63
2022/02/09 17:59:45;;;;;;;;;;;;;;;;;;5043687;28;19925;-64
2022/02/09 18:02:12;;;;;;;;;;;;;;;;;;5046540;28;19925;-64
2022/02/09 18:04:44;;;;;;;;;;;;;;;;;;5046058;28;19925;-64
2022/02/09 18:07:16;;;;;;;;;;;;;;;;;;5046314;28;19924;-64
2022/02/09 18:09:47;;;;;;;;;;;;;;;;;;5039547;28;20014;-64
2022/02/09 18:12:22;;;;;;;;;;;;;;;;;;5043594;28;19933;-64
2022/02/09 18:15:13;;;;;;;;;;;;;;;;;;5040402;28;19939;-63
2022/02/09 18:29:12;;;;;;;;;;;;;;;;;;5022928;28;19925;-64
2022/02/09 18:31:45;;;;;;;;;;;;;;;;;;5044693;28;19925;-64
2022/02/09 18:34:45;;;;;;;;;;;;;;;;;;5044146;28;20381;-64
2022/02/09 18:43:00;;;;;;;;;;;;;;;;;;4965877;28;19930;-65
2022/02/09 18:45:37;;;;;;;;;;;;;;;;;;4964482;28;19962;-64
2022/02/09 18:48:15;;;;;;;;;;;;;;;;;;5006182;28;20051;-66
2022/02/09 19:04:31;;;;;;;;;;;;;;;;;;5042840;28;19921;-64
2022/02/09 19:15:54;;;;;;;;;;;;;;;;;;5046331;28;19927;-64
2022/02/09 19:18:39;;;;;;;;;;;;;;;;;;5045267;28;19924;-64
2022/02/09 19:26:53;;;;;;;;;;;;;;;;;;5044041;28;20054;-64
2022/02/09 19:29:52;;;;;;;;;;;;;;;;;;5042764;28;19935;-64
2022/02/09 19:32:28;;;;;;;;;;;;;;;;;;5045255;28;20493;-64
2022/02/09 19:40:53;;;;;;;;;;;;;;;;;;5044573;28;20043;-63
2022/02/09 19:44:20;;;;;;;;;;;;;;;;;;5046749;28;19967;-64
2022/02/09 19:46:34;;;;;;;;;;;;;;;;;;5047877;28;20283;-63
2022/02/09 19:49:07;;;;;;;;;;;;;;;;;;5062729;22;20100;-64
2022/02/09 19:51:43;;;;;;;;;;;;;;;;;;5089883;28;19932;-64
2022/02/09 19:54:14;;;;;;;;;;;;;;;;;;5086622;28;19924;-64
2022/02/09 19:56:48;;;;;;;;;;;;;;;;;;5090259;28;20305;-64
2022/02/09 19:59:17;;;;;;;;;;;;;;;;;;5086655;28;19932;-64
2022/02/09 20:01:45;;;;;;;;;;;;;;;;;;5088313;28;19924;-65
2022/02/09 20:04:11;;;;;;;;;;;;;;;;;;5085389;28;20745;-64
2022/02/09 20:06:38;;;;;;;;;;;;;;;;;;5085097;28;19932;-65
2022/02/09 20:09:05;;;;;;;;;;;;;;;;;;5083762;28;20412;-65
2022/02/09 20:11:32;;;;;;;;;;;;;;;;;;5086042;28;19928;-64
2022/02/09 20:14:00;;;;;;;;;;;;;;;;;;5088543;28;19934;-64
2022/02/09 20:16:27;;;;;;;;;;;;;;;;;;5087840;28;19981;-64
2022/02/09 20:18:54;;;;;;;;;;;;;;;;;;5086593;28;20324;-65
2022/02/09 20:21:23;;;;;;;;;;;;;;;;;;5082763;28;19924;-65
2022/02/09 20:23:51;;;;;;;;;;;;;;;;;;5086021;28;20344;-64
2022/02/09 20:26:18;;;;;;;;;;;;;;;;;;5086158;28;19924;-64
2022/02/09 20:28:51;;;;;;;;;;;;;;;;;;5084923;28;19932;-65
2022/02/09 20:31:24;;;;;;;;;;;;;;;;;;5085484;28;20301;-65
2022/02/09 20:33:56;;;;;;;;;;;;;;;;;;5084445;28;19981;-65
2022/02/09 20:36:22;;;;;;;;;;;;;;;;;;5086594;28;19928;-65
2022/02/09 20:38:54;;;;;;;;;;;;;;;;;;5082660;28;19928;-66
2022/02/09 20:41:21;;;;;;;;;;;;;;;;;;5085054;28;19935;-65
2022/02/09 20:44:00;;;;;;;;;;;;;;;;;;5087394;28;19931;-65
2022/02/09 20:46:28;;;;;;;;;;;;;;;;;;5085087;28;19946;-63
2022/02/09 20:48:55;;;;;;;;;;;;;;;;;;5084407;28;20347;-64
2022/02/09 20:51:22;;;;;;;;;;;;;;;;;;5084491;28;19928;-64
2022/02/09 20:53:49;;;;;;;;;;;;;;;;;;5085884;28;19967;-63
2022/02/09 20:56:16;;;;;;;;;;;;;;;;;;5082592;28;19924;-65
2022/02/09 20:58:45;;;;;;;;;;;;;;;;;;5075628;28;19931;-66
2022/02/09 21:01:15;;;;;;;;;;;;;;;;;;5077868;28;20492;-67
2022/02/09 21:03:48;;;;;;;;;;;;;;;;;;5085475;28;19932;-67
2022/02/09 21:06:26;;;;;;;;;;;;;;;;;;5083688;28;20297;-67
2022/02/09 21:09:03;;;;;;;;;;;;;;;;;;5083798;28;19932;-65
2022/02/09 21:11:43;;;;;;;;;;;;;;;;;;5084148;28;19967;-64
2022/02/09 21:14:17;;;;;;;;;;;;;;;;;;5084513;28;19931;-64
2022/02/09 21:16:59;;;;;;;;;;;;;;;;;;5084873;28;19928;-65
2022/02/09 21:19:47;;;;;;;;;;;;;;;;;;5081318;28;19939;-64
2022/02/09 21:53:13;;;;;;;;;;;;;;;;;;5027847;28;20027;-64
2022/02/09 21:55:51;;;;;;;;;;;;;;;;;;5080955;28;19974;-64
2022/02/09 21:58:33;;;;;;;;;;;;;;;;;;5083221;28;19931;-63
2022/02/09 22:01:27;;;;;;;;;;;;;;;;;;5080443;28;19939;-64
2022/02/09 22:07:06;;;;;;;;;;;;;;;;;;5085884;28;19924;-64
2022/02/09 22:20:54;;;;;;;;;;;;;;;;;;5075910;28;19965;-64
2022/02/09 22:28:58;;;;;;;;;;;;;;;;;;5079343;28;19928;-64
2022/02/09 22:31:36;;;;;;;;;;;;;;;;;;5078807;28;19932;-64
2022/02/09 22:48:00;;;;;;;;;;;;;;;;;;5085139;28;19971;-64
2022/02/09 22:50:40;;;;;;;;;;;;;;;;;;5081513;28;19934;-64
2022/02/09 22:55:59;;;;;;;;;;;;;;;;;;5055359;28;19928;-63
2022/02/09 22:58:26;;;;;;;;;;;;;;;;;;5084196;28;19932;-64
2022/02/09 23:01:03;;;;;;;;;;;;;;;;;;5078185;28;20313;-64
2022/02/09 23:03:39;;;;;;;;;;;;;;;;;;5083266;28;20001;-64
2022/02/09 23:06:24;;;;;;;;;;;;;;;;;;5081209;28;19932;-64
2022/02/09 23:17:31;;;;;;;;;;;;;;;;;;5081252;28;20011;-65
2022/02/09 23:25:45;;;;;;;;;;;;;;;;;;5089024;28;19966;-64
2022/02/09 23:56:37;;;;;;;;;;;;;;;;;;5089375;28;19955;-64
